Terminal Aerodrome Forecast
Issued by NWS Wichita, KS

Home | Current Version | Previous Version | Text Only | Print | Product List | Glossary On
Versions: 1 2 3 4 5 6 7 8 9 10 11 12 13 14 15 16 17 18 19
000
FTUS43 KICT 031540 AAB
TAFICT
TAF AMD
KICT 031540Z 0316/0412 35013KT P6SM OVC015
     FM032000 36013KT P6SM OVC025
     FM032300 01009KT P6SM SCT030=

USA.gov is the U.S. government's official web portal to all federal, state and local government web resources and services.